createdAt,value
2022-08-22T00:00:00.656Z,16.4
2022-08-22T00:03:18.954Z,16.4
2022-08-22T00:06:00.640Z,16.4
2022-08-22T00:09:00.625Z,16.4
2022-08-22T00:12:00.645Z,16.4
2022-08-22T00:15:00.604Z,16.4
2022-08-22T00:18:00.698Z,16.4
2022-08-22T00:21:00.637Z,16.4
2022-08-22T00:24:00.627Z,16
2022-08-22T00:27:00.651Z,16
2022-08-22T00:30:00.651Z,16
2022-08-22T00:33:00.629Z,16
2022-08-22T00:36:00.605Z,15.8
2022-08-22T00:39:00.768Z,15.8
2022-08-22T00:42:00.605Z,15.8
2022-08-22T00:45:00.629Z,15.8
2022-08-22T00:48:00.822Z,15.8
2022-08-22T00:51:00.698Z,15.8
2022-08-22T00:54:00.620Z,15.8
2022-08-22T00:57:00.617Z,15.8
2022-08-22T01:00:00.660Z,15.8
2022-08-22T01:03:00.677Z,15.8
2022-08-22T01:06:00.634Z,15.8
2022-08-22T01:09:00.652Z,15.3
2022-08-22T01:12:00.644Z,15.3
2022-08-22T01:15:00.639Z,15.3
2022-08-22T01:18:00.765Z,15.3
2022-08-22T01:21:00.611Z,15.3
2022-08-22T01:24:00.735Z,15.1
2022-08-22T01:27:00.693Z,15.1
2022-08-22T01:30:00.726Z,15.1
2022-08-22T01:33:00.645Z,15.1
2022-08-22T01:36:00.674Z,15.1
2022-08-22T01:39:00.715Z,15.1
2022-08-22T01:42:00.669Z,14.8
2022-08-22T01:45:00.651Z,14.8
2022-08-22T01:48:00.977Z,14.8
2022-08-22T01:51:00.691Z,14.8
2022-08-22T01:54:01.434Z,14.8
2022-08-22T01:57:00.688Z,14.8
2022-08-22T02:00:00.717Z,14.8
2022-08-22T02:03:00.638Z,14.8
2022-08-22T02:06:00.621Z,14.8
2022-08-22T02:09:00.684Z,14.8
2022-08-22T02:12:00.651Z,14.8
2022-08-22T02:15:00.667Z,14.3
2022-08-22T02:18:01.330Z,14.3
2022-08-22T02:21:00.621Z,14.3
2022-08-22T02:24:00.635Z,14.3
2022-08-22T02:27:00.639Z,14.3
2022-08-22T02:30:00.652Z,14.3
2022-08-22T02:33:00.583Z,14.3
2022-08-22T02:36:00.617Z,14.3
2022-08-22T02:39:00.606Z,14.3
2022-08-22T02:42:00.646Z,14.3
2022-08-22T02:45:00.590Z,14.3
2022-08-22T02:48:00.743Z,14.3
2022-08-22T02:51:00.624Z,14.3
2022-08-22T02:54:00.666Z,14.3
2022-08-22T02:57:00.578Z,14.3
2022-08-22T03:00:00.642Z,14.3
2022-08-22T03:03:00.594Z,14.3
2022-08-22T03:06:02.087Z,13.8
2022-08-22T03:09:00.606Z,13.8
2022-08-22T03:12:00.739Z,13.8
2022-08-22T03:15:00.659Z,13.7
2022-08-22T03:18:01.085Z,13.7
2022-08-22T03:21:00.621Z,13.7
2022-08-22T03:24:00.608Z,13.7
2022-08-22T03:27:00.665Z,13.7
2022-08-22T03:30:00.595Z,13.7
2022-08-22T03:33:00.619Z,13.7
2022-08-22T03:36:00.597Z,13.7
2022-08-22T03:39:00.665Z,13.7
2022-08-22T03:42:00.642Z,13.7
2022-08-22T03:45:00.609Z,13.7
2022-08-22T03:48:00.956Z,13.7
2022-08-22T03:51:00.652Z,13.7
2022-08-22T03:54:00.632Z,13.7
2022-08-22T03:57:00.829Z,13.3
2022-08-22T04:00:00.666Z,13.3
2022-08-22T04:03:00.626Z,13.3
2022-08-22T04:06:00.602Z,13.3
2022-08-22T04:09:00.646Z,13.3
2022-08-22T04:12:00.609Z,13.2
2022-08-22T04:15:00.675Z,13.2
2022-08-22T04:18:00.654Z,13.2
2022-08-22T04:21:00.691Z,13.2
2022-08-22T04:24:00.650Z,13.2
2022-08-22T04:27:00.658Z,13.2
2022-08-22T04:30:00.650Z,13.2
2022-08-22T04:33:00.638Z,13.2
2022-08-22T04:36:00.621Z,13.2
2022-08-22T04:39:00.639Z,13.2
2022-08-22T04:42:31.558Z,13.2
2022-08-22T04:45:00.829Z,12.9
2022-08-22T04:48:00.803Z,12.9
2022-08-22T04:51:00.620Z,12.9
2022-08-22T04:54:00.676Z,12.9
2022-08-22T04:57:00.632Z,12.9
2022-08-22T05:00:00.735Z,12.9
2022-08-22T05:03:00.775Z,12.9
2022-08-22T05:06:00.697Z,12.8
2022-08-22T05:09:00.603Z,12.8
2022-08-22T05:12:00.704Z,12.8
2022-08-22T05:15:00.648Z,12.8
2022-08-22T05:18:00.872Z,12.8
2022-08-22T05:21:00.733Z,12.8
2022-08-22T05:24:00.665Z,12.8
2022-08-22T05:27:00.712Z,12.8
2022-08-22T05:30:00.866Z,12.8
2022-08-22T05:33:00.655Z,12.8
2022-08-22T05:36:00.714Z,12.8
2022-08-22T05:39:00.761Z,12.8
2022-08-22T05:42:00.689Z,12.8
2022-08-22T05:45:00.621Z,12.8
2022-08-22T05:48:00.702Z,12.8
2022-08-22T05:51:00.687Z,12.8
2022-08-22T05:54:00.680Z,12.8
2022-08-22T05:57:03.929Z,12.8
2022-08-22T06:00:00.723Z,12.8
2022-08-22T06:03:00.644Z,13.1
2022-08-22T06:06:00.695Z,13.1
2022-08-22T06:09:00.621Z,13.1
2022-08-22T06:12:00.677Z,13.1
2022-08-22T06:15:00.651Z,13.1
2022-08-22T06:18:00.970Z,13.1
2022-08-22T06:21:00.675Z,13.1
2022-08-22T06:24:00.651Z,13.6
2022-08-22T06:27:00.617Z,13.6
2022-08-22T06:30:00.731Z,13.6
2022-08-22T06:33:01.269Z,13.6
2022-08-22T06:36:00.700Z,14.2
2022-08-22T06:39:00.622Z,14.2
2022-08-22T06:42:00.666Z,14.2
2022-08-22T06:45:00.644Z,14.2
2022-08-22T06:48:01.282Z,14.7
2022-08-22T06:51:00.638Z,14.7
2022-08-22T06:54:00.674Z,14.7
2022-08-22T06:57:00.649Z,15.2
2022-08-22T07:00:01.491Z,15.2
2022-08-22T07:03:00.782Z,15.5
2022-08-22T07:06:00.686Z,15.5
2022-08-22T07:09:00.695Z,15.7
2022-08-22T07:12:00.631Z,15.7
2022-08-22T07:15:00.631Z,16.2
2022-08-22T07:18:00.923Z,16.2
2022-08-22T07:21:00.702Z,16.2
2022-08-22T07:24:00.664Z,16.2
2022-08-22T07:27:00.703Z,16.7
2022-08-22T07:30:00.697Z,16.7
2022-08-22T07:33:25.211Z,16.7
2022-08-22T07:36:00.692Z,17.2
2022-08-22T07:39:00.678Z,17.2
2022-08-22T07:42:00.655Z,17.8
2022-08-22T07:45:00.639Z,17.8
2022-08-22T07:48:01.034Z,17.8
2022-08-22T07:51:00.634Z,18.3
2022-08-22T07:54:01.182Z,18.3
2022-08-22T07:57:00.643Z,18.3
2022-08-22T08:00:00.737Z,18.8
2022-08-22T08:03:00.621Z,18.8
2022-08-22T08:06:00.652Z,18.8
2022-08-22T08:09:00.739Z,19.3
2022-08-22T08:12:00.734Z,19.3
2022-08-22T08:15:00.654Z,19.3
2022-08-22T08:18:01.025Z,19.8
2022-08-22T08:21:00.667Z,19.8
2022-08-22T08:24:00.641Z,20.4
2022-08-22T08:27:00.675Z,20.4
2022-08-22T08:30:00.693Z,20.4
2022-08-22T08:33:26.631Z,20.4
2022-08-22T08:36:04.000Z,20.9
2022-08-22T08:39:00.697Z,20.9
2022-08-22T08:42:00.646Z,20.9
2022-08-22T08:45:00.691Z,20.9
2022-08-22T08:48:00.975Z,21.4
2022-08-22T08:51:02.287Z,21.4
2022-08-22T08:54:00.664Z,21.4
2022-08-22T08:57:00.661Z,21.9
2022-08-22T09:00:00.750Z,22
2022-08-22T09:03:00.629Z,22
2022-08-22T09:06:00.676Z,22
2022-08-22T09:09:00.610Z,22.4
2022-08-22T09:12:00.666Z,22.4
2022-08-22T09:15:00.680Z,22.4
2022-08-22T09:18:01.034Z,22.4
2022-08-22T09:21:00.897Z,22.4
2022-08-22T09:24:00.730Z,22.9
2022-08-22T09:27:00.638Z,22.9
2022-08-22T09:30:00.671Z,22.9
2022-08-22T09:33:00.672Z,23.4
2022-08-22T09:36:01.153Z,23.4
2022-08-22T09:39:00.646Z,23.4
2022-08-22T09:42:00.664Z,23.4
2022-08-22T09:45:00.658Z,23.4
2022-08-22T09:48:07.713Z,23.4
2022-08-22T09:51:29.108Z,23.4
2022-08-22T09:54:00.723Z,23.4
2022-08-22T09:57:00.754Z,23.9
2022-08-22T10:00:00.736Z,24
2022-08-22T10:03:01.390Z,24
2022-08-22T10:06:00.693Z,24
2022-08-22T10:09:00.654Z,24
2022-08-22T10:12:00.679Z,24
2022-08-22T10:15:00.643Z,24
2022-08-22T10:18:00.665Z,24.4
2022-08-22T10:21:00.650Z,24.4
2022-08-22T10:24:00.746Z,24.4
2022-08-22T10:27:00.734Z,24.4
2022-08-22T10:30:00.805Z,24.4
2022-08-22T10:33:01.193Z,24.4
2022-08-22T10:36:00.672Z,24.4
2022-08-22T10:39:01.435Z,24.4
2022-08-22T10:42:00.665Z,24.4
2022-08-22T10:45:00.643Z,24.4
2022-08-22T10:48:00.697Z,24.7
2022-08-22T10:51:00.636Z,24.8
2022-08-22T10:54:00.707Z,24.8
2022-08-22T10:57:00.695Z,24.8
2022-08-22T11:00:00.800Z,24.8
2022-08-22T11:03:00.951Z,24.8
2022-08-22T11:06:00.649Z,24.8
2022-08-22T11:09:00.709Z,24.8
2022-08-22T11:12:00.707Z,24.8
2022-08-22T11:15:00.638Z,24.8
2022-08-22T11:18:00.712Z,24.8
2022-08-22T11:21:00.671Z,25.2
2022-08-22T11:24:00.850Z,25.2
2022-08-22T11:27:00.711Z,25.2
2022-08-22T11:30:01.442Z,25.2
2022-08-22T11:33:01.300Z,25.2
2022-08-22T11:36:00.656Z,25.2
2022-08-22T11:39:01.316Z,25.2
2022-08-22T11:42:00.683Z,25.2
2022-08-22T11:45:00.706Z,25.2
2022-08-22T11:48:00.709Z,25.2
2022-08-22T11:51:00.654Z,25.7
2022-08-22T11:54:00.657Z,25.7
2022-08-22T11:57:00.641Z,25.8
2022-08-22T12:00:00.730Z,25.8
2022-08-22T12:03:01.088Z,25.8
2022-08-22T12:06:00.644Z,25.8
2022-08-22T12:09:00.661Z,25.8
2022-08-22T12:12:00.677Z,25.8
2022-08-22T12:15:00.729Z,25.8
2022-08-22T12:18:02.175Z,25.8
2022-08-22T12:21:00.663Z,25.8
2022-08-22T12:24:00.692Z,25.8
2022-08-22T12:27:00.680Z,25.8
2022-08-22T12:30:00.696Z,25.8
2022-08-22T12:33:01.156Z,25.8
2022-08-22T12:36:00.697Z,25.8
2022-08-22T12:39:00.679Z,25.8
2022-08-22T12:42:00.651Z,26.1
2022-08-22T12:45:00.650Z,26.1
2022-08-22T12:48:01.154Z,26.1
2022-08-22T12:51:01.298Z,26.1
2022-08-22T12:54:00.680Z,26.1
2022-08-22T12:57:00.654Z,26.1
2022-08-22T13:00:02.094Z,26.1
2022-08-22T13:03:01.124Z,26.1
2022-08-22T13:06:00.953Z,26.1
2022-08-22T13:09:00.708Z,26.1
2022-08-22T13:12:02.574Z,26.1
2022-08-22T13:15:00.674Z,26.1
2022-08-22T13:18:28.613Z,26.1
2022-08-22T13:21:00.644Z,26.1
2022-08-22T13:24:00.674Z,26.1
2022-08-22T13:27:00.668Z,26.1
2022-08-22T13:30:00.707Z,26.1
2022-08-22T13:33:00.643Z,26.1
2022-08-22T13:36:00.678Z,26.4
2022-08-22T13:39:00.642Z,26.4
2022-08-22T13:42:00.730Z,26.4
2022-08-22T13:45:02.931Z,26.4
2022-08-22T13:48:03.557Z,26.4
2022-08-22T13:51:00.640Z,26.4
2022-08-22T13:54:02.305Z,26.4
2022-08-22T13:57:00.741Z,26.4
2022-08-22T14:00:06.837Z,26.4
2022-08-22T14:03:00.648Z,26.4
2022-08-22T14:06:37.630Z,26.4
2022-08-22T14:09:00.629Z,26.4
2022-08-22T14:12:00.647Z,26.4
2022-08-22T14:15:00.777Z,26.4
2022-08-22T14:18:01.031Z,26.4
2022-08-22T14:21:00.639Z,26.4
2022-08-22T14:24:00.701Z,26.4
2022-08-22T14:27:06.498Z,26.4
2022-08-22T14:30:00.698Z,26.4
2022-08-22T14:33:00.638Z,26.4
2022-08-22T14:36:02.293Z,26.6
2022-08-22T14:39:00.665Z,26.6
2022-08-22T14:42:04.255Z,26.7
2022-08-22T14:45:00.666Z,26.7
2022-08-22T14:48:32.229Z,26.7
2022-08-22T14:51:00.652Z,26.7
2022-08-22T14:54:00.682Z,26.7
2022-08-22T14:57:00.662Z,26.7
2022-08-22T15:00:00.719Z,26.7
2022-08-22T15:03:00.694Z,26.7
2022-08-22T15:06:00.653Z,26.7
2022-08-22T15:09:00.665Z,26.7
2022-08-22T15:12:03.734Z,26.7
2022-08-22T15:15:00.643Z,26.7
2022-08-22T15:18:00.699Z,26.7
2022-08-22T15:21:00.671Z,26.7
2022-08-22T15:24:00.700Z,26.7
2022-08-22T15:27:00.637Z,26.6
2022-08-22T15:30:00.712Z,26.6
2022-08-22T15:33:00.916Z,26.6
2022-08-22T15:36:00.654Z,26.6
2022-08-22T15:39:00.663Z,26.6
2022-08-22T15:42:01.397Z,26.6
2022-08-22T15:45:00.672Z,26.6
2022-08-22T15:48:00.679Z,26.6
2022-08-22T15:51:00.658Z,26.6
2022-08-22T15:54:00.740Z,26.6
2022-08-22T15:57:00.660Z,26.6
2022-08-22T16:00:00.650Z,26.6
2022-08-22T16:03:01.113Z,26.6
2022-08-22T16:06:00.671Z,26.6
2022-08-22T16:09:00.691Z,26.6
2022-08-22T16:12:00.667Z,26.6
2022-08-22T16:15:00.674Z,26.6
2022-08-22T16:18:00.684Z,26.6
2022-08-22T16:21:00.651Z,26.6
2022-08-22T16:24:00.662Z,26.6
2022-08-22T16:27:00.779Z,26.6
2022-08-22T16:30:00.720Z,26.6
2022-08-22T16:33:00.673Z,26.6
2022-08-22T16:36:00.689Z,26.6
2022-08-22T16:39:00.657Z,26.6
2022-08-22T16:42:00.666Z,26.6
2022-08-22T16:45:00.699Z,26.6
2022-08-22T16:48:00.678Z,26.6
2022-08-22T16:51:00.654Z,26.6
2022-08-22T16:54:00.702Z,26.6
2022-08-22T16:57:00.692Z,26.6
2022-08-22T17:00:00.773Z,26.6
2022-08-22T17:03:00.683Z,26.6
2022-08-22T17:06:00.637Z,26.6
2022-08-22T17:09:00.625Z,26.6
2022-08-22T17:12:00.625Z,26.6
2022-08-22T17:15:00.703Z,26.6
2022-08-22T17:18:01.052Z,26.1
2022-08-22T17:21:00.660Z,26.1
2022-08-22T17:24:01.395Z,26.1
2022-08-22T17:27:00.699Z,26.1
2022-08-22T17:30:00.699Z,26.1
2022-08-22T17:33:00.734Z,26.1
2022-08-22T17:36:00.754Z,26.1
2022-08-22T17:39:00.741Z,26.1
2022-08-22T17:42:00.645Z,26.1
2022-08-22T17:45:00.643Z,26.1
2022-08-22T17:48:01.041Z,25.7
2022-08-22T17:51:00.624Z,25.7
2022-08-22T17:54:00.658Z,25.7
2022-08-22T17:57:06.371Z,25.7
2022-08-22T18:00:00.723Z,25.7
2022-08-22T18:03:00.958Z,25.7
2022-08-22T18:06:00.743Z,25.7
2022-08-22T18:09:15.787Z,25.3
2022-08-22T18:12:00.639Z,25.2
2022-08-22T18:15:00.651Z,25.2
2022-08-22T18:18:01.003Z,25.2
2022-08-22T18:21:00.690Z,25.2
2022-08-22T18:24:00.638Z,25.2
2022-08-22T18:27:00.632Z,25.2
2022-08-22T18:30:00.688Z,24.8
2022-08-22T18:33:00.846Z,24.8
2022-08-22T18:36:00.610Z,24.8
2022-08-22T18:39:00.645Z,24.8
2022-08-22T18:42:00.607Z,24.8
2022-08-22T18:45:00.634Z,24.8
2022-08-22T18:48:00.631Z,24.4
2022-08-22T18:51:00.612Z,24.4
2022-08-22T18:54:00.650Z,24.4
2022-08-22T18:57:00.634Z,24.4
2022-08-22T19:00:00.606Z,24.4
2022-08-22T19:03:00.610Z,24.4
2022-08-22T19:06:00.675Z,24.1
2022-08-22T19:09:00.588Z,24.1
2022-08-22T19:12:00.693Z,23.9
2022-08-22T19:15:00.609Z,23.9
2022-08-22T19:18:00.653Z,23.9
2022-08-22T19:21:00.624Z,23.9
2022-08-22T19:24:00.697Z,23.9
2022-08-22T19:27:00.624Z,23.9
2022-08-22T19:30:00.653Z,23.9
2022-08-22T19:33:00.849Z,23.9
2022-08-22T19:36:00.634Z,23.9
2022-08-22T19:39:00.596Z,23.4
2022-08-22T19:42:00.663Z,23.4
2022-08-22T19:45:00.661Z,23.4
2022-08-22T19:48:00.638Z,23.4
2022-08-22T19:51:00.582Z,23.4
2022-08-22T19:54:00.633Z,23.4
2022-08-22T19:57:00.603Z,22.9
2022-08-22T20:00:00.695Z,22.9
2022-08-22T20:03:01.121Z,22.9
2022-08-22T20:06:06.005Z,22.8
2022-08-22T20:09:00.649Z,22.8
2022-08-22T20:12:00.682Z,22.8
2022-08-22T20:15:00.599Z,22.8
2022-08-22T20:21:00.646Z,22.4
2022-08-22T20:24:00.598Z,22.4
2022-08-22T20:27:15.568Z,22.4
2022-08-22T20:30:00.657Z,22.4
2022-08-22T20:33:00.961Z,22.4
2022-08-22T20:36:00.603Z,22.4
2022-08-22T20:39:00.711Z,22.4
2022-08-22T20:42:00.704Z,22.4
2022-08-22T20:45:00.843Z,22.4
2022-08-22T20:48:01.066Z,22.4
2022-08-22T20:51:00.740Z,22.4
2022-08-22T20:54:00.640Z,22
2022-08-22T20:57:00.717Z,22
2022-08-22T21:00:00.669Z,22
2022-08-22T21:03:00.644Z,21.8
2022-08-22T21:06:00.690Z,21.8
2022-08-22T21:09:00.634Z,21.8
2022-08-22T21:12:00.649Z,21.8
2022-08-22T21:15:00.695Z,21.8
2022-08-22T21:18:00.994Z,21.8
2022-08-22T21:21:00.688Z,21.5
2022-08-22T21:24:01.452Z,21.5
2022-08-22T21:27:00.813Z,21.5
2022-08-22T21:30:00.674Z,21.5
2022-08-22T21:33:00.704Z,21.5
2022-08-22T21:36:00.660Z,21.5
2022-08-22T21:39:00.639Z,21.5
2022-08-22T21:42:00.668Z,21
2022-08-22T21:45:00.661Z,21
2022-08-22T21:48:00.885Z,21
2022-08-22T21:51:00.716Z,21
2022-08-22T21:54:19.032Z,21
2022-08-22T21:57:00.701Z,21
2022-08-22T22:00:01.603Z,20.7
2022-08-22T22:09:00.613Z,20.7
2022-08-22T22:18:01.190Z,20.4
2022-08-22T22:27:00.665Z,20.4
2022-08-22T22:36:00.593Z,20.4
2022-08-22T22:42:00.614Z,20.4
2022-08-22T22:51:00.620Z,20.4
2022-08-22T23:12:00.705Z,19.9
2022-08-22T23:18:01.064Z,19.9
2022-08-22T23:24:00.632Z,19.9
2022-08-22T23:27:00.630Z,19.9
2022-08-22T23:30:00.685Z,19.9
2022-08-22T23:36:00.611Z,19.4
2022-08-22T23:39:00.622Z,19.4
2022-08-22T23:42:00.590Z,19.4
2022-08-22T23:54:00.581Z,19.2
2022-08-22T23:57:00.785Z,19.2
